sensor_id;sensor_type;location;lat;lon;timestamp;P1;durP1;ratioP1;P2;durP2;ratioP2
56141;SDS011;42018;48.588;10.836;2022-07-10T00:01:45;3.10;;;1.50;;
56141;SDS011;42018;48.588;10.836;2022-07-10T00:04:30;3.85;;;1.50;;
56141;SDS011;42018;48.588;10.836;2022-07-10T00:07:16;2.78;;;1.40;;
56141;SDS011;42018;48.588;10.836;2022-07-10T00:10:02;3.42;;;1.45;;
56141;SDS011;42018;48.588;10.836;2022-07-10T00:12:50;2.67;;;1.40;;
56141;SDS011;42018;48.588;10.836;2022-07-10T00:15:36;2.63;;;1.45;;
56141;SDS011;42018;48.588;10.836;2022-07-10T00:18:21;2.67;;;1.40;;
56141;SDS011;42018;48.588;10.836;2022-07-10T00:21:07;2.72;;;1.40;;
56141;SDS011;42018;48.588;10.836;2022-07-10T00:23:52;2.80;;;1.42;;
56141;SDS011;42018;48.588;10.836;2022-07-10T00:26:37;2.53;;;1.40;;
56141;SDS011;42018;48.588;10.836;2022-07-10T00:29:23;3.35;;;1.45;;
56141;SDS011;42018;48.588;10.836;2022-07-10T00:32:08;2.45;;;1.45;;
56141;SDS011;42018;48.588;10.836;2022-07-10T00:34:54;2.95;;;1.50;;
56141;SDS011;42018;48.588;10.836;2022-07-10T00:37:39;2.90;;;1.42;;
56141;SDS011;42018;48.588;10.836;2022-07-10T00:40:25;3.08;;;1.40;;
56141;SDS011;42018;48.588;10.836;2022-07-10T00:43:10;3.00;;;1.60;;
56141;SDS011;42018;48.588;10.836;2022-07-10T00:45:56;3.55;;;1.30;;
56141;SDS011;42018;48.588;10.836;2022-07-10T00:48:41;2.65;;;1.50;;
56141;SDS011;42018;48.588;10.836;2022-07-10T00:51:27;2.88;;;1.50;;
56141;SDS011;42018;48.588;10.836;2022-07-10T00:54:14;2.53;;;1.40;;
56141;SDS011;42018;48.588;10.836;2022-07-10T00:56:59;2.47;;;1.40;;
56141;SDS011;42018;48.588;10.836;2022-07-10T00:59:47;2.55;;;1.40;;
56141;SDS011;42018;48.588;10.836;2022-07-10T01:02:33;2.35;;;1.48;;
56141;SDS011;42018;48.588;10.836;2022-07-10T01:05:19;3.22;;;1.50;;
56141;SDS011;42018;48.588;10.836;2022-07-10T01:08:04;2.78;;;1.48;;
56141;SDS011;42018;48.588;10.836;2022-07-10T01:10:50;3.13;;;1.60;;
56141;SDS011;42018;48.588;10.836;2022-07-10T01:13:39;2.83;;;1.60;;
56141;SDS011;42018;48.588;10.836;2022-07-10T01:16:25;2.80;;;1.50;;
56141;SDS011;42018;48.588;10.836;2022-07-10T01:19:10;3.03;;;1.40;;
56141;SDS011;42018;48.588;10.836;2022-07-10T01:21:56;2.13;;;1.42;;
56141;SDS011;42018;48.588;10.836;2022-07-10T01:24:41;3.45;;;1.60;;
56141;SDS011;42018;48.588;10.836;2022-07-10T01:27:28;2.88;;;1.60;;
56141;SDS011;42018;48.588;10.836;2022-07-10T01:30:13;2.67;;;1.60;;
56141;SDS011;42018;48.588;10.836;2022-07-10T01:32:59;3.30;;;1.70;;
56141;SDS011;42018;48.588;10.836;2022-07-10T01:35:44;3.45;;;1.60;;
56141;SDS011;42018;48.588;10.836;2022-07-10T01:38:29;3.22;;;1.63;;
56141;SDS011;42018;48.588;10.836;2022-07-10T01:41:15;2.22;;;1.45;;
56141;SDS011;42018;48.588;10.836;2022-07-10T01:44:00;3.17;;;1.75;;
56141;SDS011;42018;48.588;10.836;2022-07-10T01:46:46;2.72;;;1.63;;
56141;SDS011;42018;48.588;10.836;2022-07-10T01:49:33;2.97;;;1.60;;
56141;SDS011;42018;48.588;10.836;2022-07-10T01:52:19;3.33;;;1.65;;
56141;SDS011;42018;48.588;10.836;2022-07-10T01:55:06;2.55;;;1.40;;
56141;SDS011;42018;48.588;10.836;2022-07-10T01:57:51;2.67;;;1.60;;
56141;SDS011;42018;48.588;10.836;2022-07-10T02:00:37;3.35;;;1.58;;
56141;SDS011;42018;48.588;10.836;2022-07-10T02:03:22;2.60;;;1.50;;
56141;SDS011;42018;48.588;10.836;2022-07-10T02:06:26;2.83;;;1.70;;
56141;SDS011;42018;48.588;10.836;2022-07-10T02:09:12;3.38;;;1.80;;
56141;SDS011;42018;48.588;10.836;2022-07-10T02:11:57;3.17;;;1.75;;
56141;SDS011;42018;48.588;10.836;2022-07-10T02:14:43;2.90;;;1.83;;
56141;SDS011;42018;48.588;10.836;2022-07-10T02:17:28;3.15;;;1.73;;
56141;SDS011;42018;48.588;10.836;2022-07-10T02:20:14;3.05;;;1.83;;
56141;SDS011;42018;48.588;10.836;2022-07-10T02:22:59;2.83;;;1.58;;
56141;SDS011;42018;48.588;10.836;2022-07-10T02:25:45;2.50;;;1.50;;
56141;SDS011;42018;48.588;10.836;2022-07-10T02:28:30;2.63;;;1.50;;
56141;SDS011;42018;48.588;10.836;2022-07-10T02:31:15;3.00;;;1.67;;
56141;SDS011;42018;48.588;10.836;2022-07-10T02:34:01;2.85;;;1.75;;
56141;SDS011;42018;48.588;10.836;2022-07-10T02:36:46;3.15;;;1.60;;
56141;SDS011;42018;48.588;10.836;2022-07-10T02:39:32;3.80;;;1.83;;
56141;SDS011;42018;48.588;10.836;2022-07-10T02:42:17;3.72;;;1.80;;
56141;SDS011;42018;48.588;10.836;2022-07-10T02:45:03;3.30;;;1.80;;
56141;SDS011;42018;48.588;10.836;2022-07-10T02:47:49;2.45;;;1.60;;
56141;SDS011;42018;48.588;10.836;2022-07-10T02:50:34;3.10;;;1.80;;
56141;SDS011;42018;48.588;10.836;2022-07-10T02:53:20;3.28;;;1.70;;
56141;SDS011;42018;48.588;10.836;2022-07-10T02:56:05;3.03;;;1.88;;
56141;SDS011;42018;48.588;10.836;2022-07-10T02:58:51;3.22;;;1.80;;
56141;SDS011;42018;48.588;10.836;2022-07-10T03:01:36;3.30;;;1.80;;
56141;SDS011;42018;48.588;10.836;2022-07-10T03:04:22;2.88;;;1.77;;
56141;SDS011;42018;48.588;10.836;2022-07-10T03:07:07;3.58;;;1.88;;
56141;SDS011;42018;48.588;10.836;2022-07-10T03:09:52;3.85;;;1.73;;
56141;SDS011;42018;48.588;10.836;2022-07-10T03:12:38;3.10;;;1.80;;
56141;SDS011;42018;48.588;10.836;2022-07-10T03:15:24;3.83;;;1.70;;
56141;SDS011;42018;48.588;10.836;2022-07-10T03:18:09;3.70;;;2.08;;
56141;SDS011;42018;48.588;10.836;2022-07-10T03:20:54;3.22;;;1.90;;
56141;SDS011;42018;48.588;10.836;2022-07-10T03:23:40;4.60;;;2.08;;
56141;SDS011;42018;48.588;10.836;2022-07-10T03:26:25;3.75;;;2.30;;
56141;SDS011;42018;48.588;10.836;2022-07-10T03:29:11;3.65;;;2.08;;
56141;SDS011;42018;48.588;10.836;2022-07-10T03:31:57;3.13;;;2.00;;
56141;SDS011;42018;48.588;10.836;2022-07-10T03:34:42;3.22;;;2.03;;
56141;SDS011;42018;48.588;10.836;2022-07-10T03:37:27;3.60;;;2.00;;
56141;SDS011;42018;48.588;10.836;2022-07-10T03:40:13;4.95;;;2.30;;
56141;SDS011;42018;48.588;10.836;2022-07-10T03:42:58;3.38;;;2.13;;
56141;SDS011;42018;48.588;10.836;2022-07-10T03:45:44;3.58;;;2.25;;
56141;SDS011;42018;48.588;10.836;2022-07-10T03:48:29;3.90;;;2.25;;
56141;SDS011;42018;48.588;10.836;2022-07-10T03:51:14;3.50;;;2.20;;
56141;SDS011;42018;48.588;10.836;2022-07-10T03:54:00;3.92;;;2.40;;
56141;SDS011;42018;48.588;10.836;2022-07-10T03:56:45;4.28;;;2.60;;
56141;SDS011;42018;48.588;10.836;2022-07-10T03:59:49;4.57;;;2.40;;
56141;SDS011;42018;48.588;10.836;2022-07-10T04:02:34;4.07;;;2.55;;
56141;SDS011;42018;48.588;10.836;2022-07-10T04:05:20;4.10;;;2.50;;
56141;SDS011;42018;48.588;10.836;2022-07-10T04:08:05;5.30;;;2.90;;
56141;SDS011;42018;48.588;10.836;2022-07-10T04:10:51;3.83;;;2.60;;
56141;SDS011;42018;48.588;10.836;2022-07-10T04:13:36;4.15;;;2.80;;
56141;SDS011;42018;48.588;10.836;2022-07-10T04:16:22;3.65;;;2.60;;
56141;SDS011;42018;48.588;10.836;2022-07-10T04:19:07;3.97;;;2.67;;
56141;SDS011;42018;48.588;10.836;2022-07-10T04:21:53;4.35;;;2.60;;
56141;SDS011;42018;48.588;10.836;2022-07-10T04:24:38;4.53;;;2.85;;
56141;SDS011;42018;48.588;10.836;2022-07-10T04:27:23;4.78;;;2.85;;
56141;SDS011;42018;48.588;10.836;2022-07-10T04:30:09;4.55;;;3.10;;
56141;SDS011;42018;48.588;10.836;2022-07-10T04:32:55;4.22;;;2.70;;
56141;SDS011;42018;48.588;10.836;2022-07-10T04:35:40;4.70;;;2.80;;
56141;SDS011;42018;48.588;10.836;2022-07-10T04:38:26;5.10;;;2.70;;
56141;SDS011;42018;48.588;10.836;2022-07-10T04:41:11;4.30;;;3.20;;
56141;SDS011;42018;48.588;10.836;2022-07-10T04:43:56;4.05;;;2.90;;
56141;SDS011;42018;48.588;10.836;2022-07-10T04:46:42;5.00;;;3.00;;
56141;SDS011;42018;48.588;10.836;2022-07-10T04:49:27;4.20;;;3.13;;
56141;SDS011;42018;48.588;10.836;2022-07-10T04:52:13;4.00;;;2.90;;
56141;SDS011;42018;48.588;10.836;2022-07-10T04:54:59;4.47;;;2.88;;
56141;SDS011;42018;48.588;10.836;2022-07-10T04:57:44;4.70;;;3.00;;
56141;SDS011;42018;48.588;10.836;2022-07-10T05:00:30;4.22;;;2.88;;
56141;SDS011;42018;48.588;10.836;2022-07-10T05:03:15;3.80;;;2.28;;
56141;SDS011;42018;48.588;10.836;2022-07-10T05:06:00;3.75;;;2.40;;
56141;SDS011;42018;48.588;10.836;2022-07-10T05:08:46;4.28;;;2.80;;
56141;SDS011;42018;48.588;10.836;2022-07-10T05:11:31;3.70;;;2.28;;
56141;SDS011;42018;48.588;10.836;2022-07-10T05:14:16;4.40;;;2.40;;
56141;SDS011;42018;48.588;10.836;2022-07-10T05:17:02;4.30;;;2.28;;
56141;SDS011;42018;48.588;10.836;2022-07-10T05:19:48;3.55;;;2.10;;
56141;SDS011;42018;48.588;10.836;2022-07-10T05:22:33;4.35;;;2.20;;
56141;SDS011;42018;48.588;10.836;2022-07-10T05:25:19;6.03;;;2.15;;
56141;SDS011;42018;48.588;10.836;2022-07-10T05:28:04;4.43;;;1.85;;
56141;SDS011;42018;48.588;10.836;2022-07-10T05:30:50;2.90;;;1.70;;
56141;SDS011;42018;48.588;10.836;2022-07-10T05:33:35;4.70;;;1.88;;
56141;SDS011;42018;48.588;10.836;2022-07-10T05:36:23;2.78;;;1.40;;
56141;SDS011;42018;48.588;10.836;2022-07-10T05:39:09;3.08;;;1.67;;
56141;SDS011;42018;48.588;10.836;2022-07-10T05:41:54;3.42;;;1.50;;
56141;SDS011;42018;48.588;10.836;2022-07-10T05:44:40;3.30;;;1.50;;
56141;SDS011;42018;48.588;10.836;2022-07-10T05:47:26;3.65;;;1.60;;
56141;SDS011;42018;48.588;10.836;2022-07-10T05:50:11;2.40;;;1.30;;
56141;SDS011;42018;48.588;10.836;2022-07-10T05:52:57;3.05;;;1.40;;
56141;SDS011;42018;48.588;10.836;2022-07-10T05:55:43;2.78;;;1.50;;
56141;SDS011;42018;48.588;10.836;2022-07-10T05:58:28;2.72;;;1.40;;
56141;SDS011;42018;48.588;10.836;2022-07-10T06:01:14;3.75;;;1.50;;
56141;SDS011;42018;48.588;10.836;2022-07-10T06:03:59;2.28;;;1.30;;
56141;SDS011;42018;48.588;10.836;2022-07-10T06:06:45;3.40;;;1.50;;
56141;SDS011;42018;48.588;10.836;2022-07-10T06:09:31;4.43;;;1.55;;
56141;SDS011;42018;48.588;10.836;2022-07-10T06:12:17;2.80;;;1.30;;
56141;SDS011;42018;48.588;10.836;2022-07-10T06:15:02;3.50;;;1.30;;
56141;SDS011;42018;48.588;10.836;2022-07-10T06:17:48;2.92;;;1.40;;
56141;SDS011;42018;48.588;10.836;2022-07-10T06:20:34;2.97;;;1.58;;
56141;SDS011;42018;48.588;10.836;2022-07-10T06:23:19;4.53;;;1.50;;
56141;SDS011;42018;48.588;10.836;2022-07-10T06:26:04;2.97;;;1.30;;
56141;SDS011;42018;48.588;10.836;2022-07-10T06:28:50;3.25;;;1.70;;
56141;SDS011;42018;48.588;10.836;2022-07-10T06:31:36;4.30;;;1.55;;
56141;SDS011;42018;48.588;10.836;2022-07-10T06:34:21;3.40;;;1.50;;
56141;SDS011;42018;48.588;10.836;2022-07-10T06:37:06;3.33;;;1.50;;
56141;SDS011;42018;48.588;10.836;2022-07-10T06:39:52;3.15;;;1.48;;
56141;SDS011;42018;48.588;10.836;2022-07-10T06:42:37;3.90;;;1.58;;
56141;SDS011;42018;48.588;10.836;2022-07-10T06:45:23;3.40;;;1.50;;
56141;SDS011;42018;48.588;10.836;2022-07-10T06:48:08;3.65;;;1.50;;
56141;SDS011;42018;48.588;10.836;2022-07-10T06:50:54;3.35;;;1.52;;
56141;SDS011;42018;48.588;10.836;2022-07-10T06:53:39;3.00;;;1.45;;
56141;SDS011;42018;48.588;10.836;2022-07-10T06:56:25;3.53;;;1.58;;
56141;SDS011;42018;48.588;10.836;2022-07-10T06:59:10;5.05;;;1.60;;
56141;SDS011;42018;48.588;10.836;2022-07-10T07:01:56;3.38;;;1.50;;
56141;SDS011;42018;48.588;10.836;2022-07-10T07:04:41;3.33;;;1.45;;
56141;SDS011;42018;48.588;10.836;2022-07-10T07:07:27;2.63;;;1.35;;
56141;SDS011;42018;48.588;10.836;2022-07-10T07:10:12;4.57;;;1.48;;
56141;SDS011;42018;48.588;10.836;2022-07-10T07:12:58;2.97;;;1.50;;
56141;SDS011;42018;48.588;10.836;2022-07-10T07:15:44;3.25;;;1.40;;
56141;SDS011;42018;48.588;10.836;2022-07-10T07:18:37;4.80;;;1.30;;
56141;SDS011;42018;48.588;10.836;2022-07-10T07:21:32;3.13;;;1.25;;
56141;SDS011;42018;48.588;10.836;2022-07-10T07:24:36;2.88;;;1.20;;
56141;SDS011;42018;48.588;10.836;2022-07-10T07:27:21;3.70;;;1.50;;
56141;SDS011;42018;48.588;10.836;2022-07-10T07:30:08;3.08;;;1.20;;
56141;SDS011;42018;48.588;10.836;2022-07-10T07:32:56;3.08;;;1.20;;
56141;SDS011;42018;48.588;10.836;2022-07-10T07:35:41;3.67;;;1.13;;
56141;SDS011;42018;48.588;10.836;2022-07-10T07:38:29;3.58;;;1.30;;
56141;SDS011;42018;48.588;10.836;2022-07-10T07:41:14;4.22;;;1.23;;
56141;SDS011;42018;48.588;10.836;2022-07-10T07:44:00;2.40;;;1.02;;
56141;SDS011;42018;48.588;10.836;2022-07-10T07:46:45;2.72;;;1.20;;
56141;SDS011;42018;48.588;10.836;2022-07-10T07:49:31;2.97;;;1.23;;
56141;SDS011;42018;48.588;10.836;2022-07-10T07:52:37;3.30;;;1.40;;
56141;SDS011;42018;48.588;10.836;2022-07-10T07:55:23;3.00;;;1.30;;
56141;SDS011;42018;48.588;10.836;2022-07-10T07:58:09;3.25;;;1.25;;
56141;SDS011;42018;48.588;10.836;2022-07-10T08:00:55;6.15;;;2.45;;
56141;SDS011;42018;48.588;10.836;2022-07-10T08:03:41;2.88;;;1.30;;
56141;SDS011;42018;48.588;10.836;2022-07-10T08:06:27;4.22;;;1.40;;
56141;SDS011;42018;48.588;10.836;2022-07-10T08:09:15;4.10;;;1.23;;
56141;SDS011;42018;48.588;10.836;2022-07-10T08:12:00;1.98;;;0.90;;
56141;SDS011;42018;48.588;10.836;2022-07-10T08:14:46;2.30;;;1.00;;
56141;SDS011;42018;48.588;10.836;2022-07-10T08:20:28;3.00;;;1.17;;
56141;SDS011;42018;48.588;10.836;2022-07-10T08:23:13;2.75;;;0.98;;
56141;SDS011;42018;48.588;10.836;2022-07-10T08:26:01;3.33;;;1.20;;
56141;SDS011;42018;48.588;10.836;2022-07-10T08:28:47;3.22;;;0.90;;
56141;SDS011;42018;48.588;10.836;2022-07-10T08:31:32;2.55;;;0.90;;
56141;SDS011;42018;48.588;10.836;2022-07-10T08:34:41;2.35;;;1.10;;
56141;SDS011;42018;48.588;10.836;2022-07-10T08:37:26;1.50;;;0.77;;
56141;SDS011;42018;48.588;10.836;2022-07-10T08:40:12;3.08;;;1.00;;
56141;SDS011;42018;48.588;10.836;2022-07-10T08:43:05;2.88;;;1.05;;
56141;SDS011;42018;48.588;10.836;2022-07-10T08:45:51;2.42;;;1.00;;
56141;SDS011;42018;48.588;10.836;2022-07-10T08:48:44;2.83;;;0.93;;
56141;SDS011;42018;48.588;10.836;2022-07-10T08:54:30;2.47;;;0.90;;
56141;SDS011;42018;48.588;10.836;2022-07-10T09:00:14;2.08;;;0.90;;
56141;SDS011;42018;48.588;10.836;2022-07-10T09:03:01;3.22;;;1.00;;
56141;SDS011;42018;48.588;10.836;2022-07-10T09:05:47;3.60;;;1.08;;
56141;SDS011;42018;48.588;10.836;2022-07-10T09:08:36;3.00;;;1.00;;
56141;SDS011;42018;48.588;10.836;2022-07-10T09:11:25;2.85;;;0.80;;
56141;SDS011;42018;48.588;10.836;2022-07-10T09:14:15;3.20;;;0.80;;
56141;SDS011;42018;48.588;10.836;2022-07-10T09:17:01;2.38;;;1.05;;
56141;SDS011;42018;48.588;10.836;2022-07-10T09:19:50;3.95;;;0.90;;
56141;SDS011;42018;48.588;10.836;2022-07-10T09:22:35;2.30;;;0.85;;
56141;SDS011;42018;48.588;10.836;2022-07-10T09:25:21;3.35;;;1.10;;
56141;SDS011;42018;48.588;10.836;2022-07-10T09:28:06;3.03;;;0.88;;
56141;SDS011;42018;48.588;10.836;2022-07-10T09:30:57;3.00;;;0.98;;
56141;SDS011;42018;48.588;10.836;2022-07-10T09:33:46;3.37;;;1.00;;
56141;SDS011;42018;48.588;10.836;2022-07-10T09:36:32;3.42;;;0.80;;
56141;SDS011;42018;48.588;10.836;2022-07-10T09:39:17;2.40;;;0.82;;
56141;SDS011;42018;48.588;10.836;2022-07-10T09:42:06;1.38;;;0.70;;
56141;SDS011;42018;48.588;10.836;2022-07-10T09:45:41;2.97;;;0.82;;
56141;SDS011;42018;48.588;10.836;2022-07-10T09:48:29;1.67;;;0.70;;
56141;SDS011;42018;48.588;10.836;2022-07-10T09:51:25;2.90;;;1.00;;
56141;SDS011;42018;48.588;10.836;2022-07-10T09:55:02;2.75;;;0.98;;
56141;SDS011;42018;48.588;10.836;2022-07-10T09:58:04;3.25;;;0.80;;
56141;SDS011;42018;48.588;10.836;2022-07-10T10:00:51;3.03;;;1.00;;
56141;SDS011;42018;48.588;10.836;2022-07-10T10:04:12;3.28;;;1.05;;
56141;SDS011;42018;48.588;10.836;2022-07-10T10:07:01;2.05;;;0.77;;
56141;SDS011;42018;48.588;10.836;2022-07-10T10:09:51;2.13;;;0.82;;
56141;SDS011;42018;48.588;10.836;2022-07-10T10:12:44;3.70;;;0.90;;
56141;SDS011;42018;48.588;10.836;2022-07-10T10:15:40;2.60;;;0.90;;
56141;SDS011;42018;48.588;10.836;2022-07-10T10:18:28;2.60;;;1.00;;
56141;SDS011;42018;48.588;10.836;2022-07-10T10:21:16;2.55;;;0.90;;
56141;SDS011;42018;48.588;10.836;2022-07-10T10:24:01;1.80;;;0.80;;
56141;SDS011;42018;48.588;10.836;2022-07-10T10:26:47;2.13;;;0.80;;
56141;SDS011;42018;48.588;10.836;2022-07-10T10:29:36;3.20;;;1.02;;
56141;SDS011;42018;48.588;10.836;2022-07-10T10:32:23;1.42;;;0.70;;
56141;SDS011;42018;48.588;10.836;2022-07-10T10:35:09;2.75;;;0.82;;
56141;SDS011;42018;48.588;10.836;2022-07-10T10:37:54;2.00;;;0.82;;
56141;SDS011;42018;48.588;10.836;2022-07-10T10:40:43;2.70;;;0.90;;
56141;SDS011;42018;48.588;10.836;2022-07-10T10:43:28;2.35;;;0.88;;
56141;SDS011;42018;48.588;10.836;2022-07-10T10:46:23;2.08;;;0.60;;
56141;SDS011;42018;48.588;10.836;2022-07-10T10:49:10;1.50;;;0.80;;
56141;SDS011;42018;48.588;10.836;2022-07-10T10:57:41;2.53;;;0.90;;
56141;SDS011;42018;48.588;10.836;2022-07-10T11:00:33;2.13;;;0.80;;
56141;SDS011;42018;48.588;10.836;2022-07-10T11:03:26;2.35;;;0.90;;
56141;SDS011;42018;48.588;10.836;2022-07-10T11:06:12;1.60;;;0.68;;
56141;SDS011;42018;48.588;10.836;2022-07-10T11:08:59;3.08;;;0.80;;
56141;SDS011;42018;48.588;10.836;2022-07-10T11:14:50;1.35;;;0.70;;
56141;SDS011;42018;48.588;10.836;2022-07-10T11:17:38;1.85;;;0.75;;
56141;SDS011;42018;48.588;10.836;2022-07-10T11:20:26;2.22;;;0.88;;
56141;SDS011;42018;48.588;10.836;2022-07-10T11:29:06;2.50;;;0.65;;
56141;SDS011;42018;48.588;10.836;2022-07-10T11:31:52;2.35;;;0.82;;
56141;SDS011;42018;48.588;10.836;2022-07-10T11:34:38;1.30;;;0.55;;
56141;SDS011;42018;48.588;10.836;2022-07-10T11:37:24;4.10;;;0.80;;
56141;SDS011;42018;48.588;10.836;2022-07-10T11:40:13;1.90;;;0.77;;
56141;SDS011;42018;48.588;10.836;2022-07-10T11:43:01;2.05;;;0.70;;
56141;SDS011;42018;48.588;10.836;2022-07-10T11:45:50;2.60;;;0.65;;
56141;SDS011;42018;48.588;10.836;2022-07-10T11:48:40;1.42;;;0.50;;
56141;SDS011;42018;48.588;10.836;2022-07-10T11:51:28;2.40;;;0.77;;
56141;SDS011;42018;48.588;10.836;2022-07-10T11:54:15;1.67;;;0.65;;
56141;SDS011;42018;48.588;10.836;2022-07-10T11:57:06;1.08;;;0.60;;
56141;SDS011;42018;48.588;10.836;2022-07-10T11:59:53;1.88;;;0.75;;
56141;SDS011;42018;48.588;10.836;2022-07-10T12:02:38;1.45;;;0.60;;
56141;SDS011;42018;48.588;10.836;2022-07-10T12:08:16;2.70;;;0.73;;
56141;SDS011;42018;48.588;10.836;2022-07-10T12:11:10;1.42;;;0.55;;
56141;SDS011;42018;48.588;10.836;2022-07-10T12:17:10;1.23;;;0.55;;
56141;SDS011;42018;48.588;10.836;2022-07-10T12:19:56;1.95;;;0.60;;
56141;SDS011;42018;48.588;10.836;2022-07-10T12:22:42;1.75;;;0.88;;
56141;SDS011;42018;48.588;10.836;2022-07-10T12:25:28;1.98;;;0.60;;
56141;SDS011;42018;48.588;10.836;2022-07-10T12:28:14;1.40;;;0.60;;
56141;SDS011;42018;48.588;10.836;2022-07-10T12:30:59;3.00;;;0.68;;
56141;SDS011;42018;48.588;10.836;2022-07-10T12:33:49;1.23;;;0.55;;
56141;SDS011;42018;48.588;10.836;2022-07-10T12:39:32;1.08;;;0.50;;
56141;SDS011;42018;48.588;10.836;2022-07-10T12:42:31;2.08;;;0.70;;
56141;SDS011;42018;48.588;10.836;2022-07-10T12:45:17;1.25;;;0.60;;
56141;SDS011;42018;48.588;10.836;2022-07-10T12:48:03;2.17;;;0.63;;
56141;SDS011;42018;48.588;10.836;2022-07-10T12:50:50;1.45;;;0.50;;
56141;SDS011;42018;48.588;10.836;2022-07-10T12:53:44;1.10;;;0.55;;
56141;SDS011;42018;48.588;10.836;2022-07-10T12:56:34;0.73;;;0.45;;
56141;SDS011;42018;48.588;10.836;2022-07-10T12:59:20;1.08;;;0.50;;
56141;SDS011;42018;48.588;10.836;2022-07-10T13:02:19;1.35;;;0.50;;
56141;SDS011;42018;48.588;10.836;2022-07-10T13:07:52;1.10;;;0.43;;
56141;SDS011;42018;48.588;10.836;2022-07-10T13:10:37;1.27;;;0.50;;
56141;SDS011;42018;48.588;10.836;2022-07-10T13:13:24;1.75;;;0.50;;
56141;SDS011;42018;48.588;10.836;2022-07-10T13:16:09;1.65;;;0.50;;
56141;SDS011;42018;48.588;10.836;2022-07-10T13:18:55;1.15;;;0.40;;
56141;SDS011;42018;48.588;10.836;2022-07-10T13:21:40;1.95;;;0.60;;
56141;SDS011;42018;48.588;10.836;2022-07-10T13:24:26;1.55;;;0.50;;
56141;SDS011;42018;48.588;10.836;2022-07-10T13:27:12;1.63;;;0.50;;
56141;SDS011;42018;48.588;10.836;2022-07-10T13:29:57;0.65;;;0.40;;
56141;SDS011;42018;48.588;10.836;2022-07-10T13:32:43;0.88;;;0.40;;
56141;SDS011;42018;48.588;10.836;2022-07-10T13:35:31;1.65;;;0.60;;
56141;SDS011;42018;48.588;10.836;2022-07-10T13:38:18;2.63;;;0.70;;
56141;SDS011;42018;48.588;10.836;2022-07-10T13:41:05;1.63;;;0.60;;
56141;SDS011;42018;48.588;10.836;2022-07-10T13:43:50;1.27;;;0.60;;
56141;SDS011;42018;48.588;10.836;2022-07-10T13:46:36;1.40;;;0.60;;
56141;SDS011;42018;48.588;10.836;2022-07-10T13:49:22;0.80;;;0.50;;
56141;SDS011;42018;48.588;10.836;2022-07-10T13:52:08;1.67;;;0.50;;
56141;SDS011;42018;48.588;10.836;2022-07-10T13:54:53;1.52;;;0.50;;
56141;SDS011;42018;48.588;10.836;2022-07-10T13:57:39;1.88;;;0.50;;
56141;SDS011;42018;48.588;10.836;2022-07-10T14:00:24;1.40;;;0.50;;
56141;SDS011;42018;48.588;10.836;2022-07-10T14:03:10;1.38;;;0.40;;
56141;SDS011;42018;48.588;10.836;2022-07-10T14:05:55;1.23;;;0.40;;
56141;SDS011;42018;48.588;10.836;2022-07-10T14:08:41;1.23;;;0.60;;
56141;SDS011;42018;48.588;10.836;2022-07-10T14:11:26;1.58;;;0.50;;
56141;SDS011;42018;48.588;10.836;2022-07-10T14:14:13;1.92;;;0.55;;
56141;SDS011;42018;48.588;10.836;2022-07-10T14:16:59;1.20;;;0.50;;
56141;SDS011;42018;48.588;10.836;2022-07-10T14:19:44;1.35;;;0.50;;
56141;SDS011;42018;48.588;10.836;2022-07-10T14:22:30;1.52;;;0.55;;
56141;SDS011;42018;48.588;10.836;2022-07-10T14:25:15;2.80;;;0.50;;
56141;SDS011;42018;48.588;10.836;2022-07-10T14:28:01;1.95;;;0.50;;
56141;SDS011;42018;48.588;10.836;2022-07-10T14:30:46;2.58;;;0.60;;
56141;SDS011;42018;48.588;10.836;2022-07-10T14:33:34;1.25;;;0.35;;
56141;SDS011;42018;48.588;10.836;2022-07-10T14:36:21;2.05;;;0.45;;
56141;SDS011;42018;48.588;10.836;2022-07-10T14:41:59;1.70;;;0.70;;
56141;SDS011;42018;48.588;10.836;2022-07-10T14:44:45;2.20;;;0.50;;
56141;SDS011;42018;48.588;10.836;2022-07-10T14:47:31;2.63;;;0.60;;
56141;SDS011;42018;48.588;10.836;2022-07-10T14:50:18;1.52;;;0.60;;
56141;SDS011;42018;48.588;10.836;2022-07-10T14:53:03;3.15;;;0.73;;
56141;SDS011;42018;48.588;10.836;2022-07-10T14:55:50;2.78;;;0.60;;
56141;SDS011;42018;48.588;10.836;2022-07-10T14:58:36;2.50;;;0.68;;
56141;SDS011;42018;48.588;10.836;2022-07-10T15:01:22;2.85;;;0.60;;
56141;SDS011;42018;48.588;10.836;2022-07-10T15:04:07;2.15;;;0.63;;
56141;SDS011;42018;48.588;10.836;2022-07-10T15:06:52;2.60;;;0.60;;
56141;SDS011;42018;48.588;10.836;2022-07-10T15:09:38;1.30;;;0.50;;
56141;SDS011;42018;48.588;10.836;2022-07-10T15:12:23;2.88;;;0.70;;
56141;SDS011;42018;48.588;10.836;2022-07-10T15:15:09;1.52;;;0.40;;
56141;SDS011;42018;48.588;10.836;2022-07-10T15:17:55;0.82;;;0.40;;
56141;SDS011;42018;48.588;10.836;2022-07-10T15:20:41;1.85;;;0.60;;
56141;SDS011;42018;48.588;10.836;2022-07-10T15:23:26;1.75;;;0.65;;
56141;SDS011;42018;48.588;10.836;2022-07-10T15:26:13;1.23;;;0.45;;
56141;SDS011;42018;48.588;10.836;2022-07-10T15:28:58;3.08;;;0.73;;
56141;SDS011;42018;48.588;10.836;2022-07-10T15:31:43;1.48;;;0.60;;
56141;SDS011;42018;48.588;10.836;2022-07-10T15:34:29;1.05;;;0.40;;
56141;SDS011;42018;48.588;10.836;2022-07-10T15:37:15;2.70;;;0.88;;
56141;SDS011;42018;48.588;10.836;2022-07-10T15:40:01;1.55;;;0.40;;
56141;SDS011;42018;48.588;10.836;2022-07-10T15:42:47;0.73;;;0.40;;
56141;SDS011;42018;48.588;10.836;2022-07-10T15:45:33;1.92;;;0.50;;
56141;SDS011;42018;48.588;10.836;2022-07-10T15:48:19;0.80;;;0.47;;
56141;SDS011;42018;48.588;10.836;2022-07-10T15:51:05;1.95;;;0.60;;
56141;SDS011;42018;48.588;10.836;2022-07-10T15:53:50;1.65;;;0.50;;
56141;SDS011;42018;48.588;10.836;2022-07-10T15:56:35;0.73;;;0.40;;
56141;SDS011;42018;48.588;10.836;2022-07-10T15:59:21;1.63;;;0.50;;
56141;SDS011;42018;48.588;10.836;2022-07-10T16:02:09;1.38;;;0.40;;
56141;SDS011;42018;48.588;10.836;2022-07-10T16:04:55;1.52;;;0.60;;
56141;SDS011;42018;48.588;10.836;2022-07-10T16:07:41;0.80;;;0.40;;
56141;SDS011;42018;48.588;10.836;2022-07-10T16:10:26;1.98;;;0.50;;
56141;SDS011;42018;48.588;10.836;2022-07-10T16:13:11;1.35;;;0.60;;
56141;SDS011;42018;48.588;10.836;2022-07-10T16:15:57;0.73;;;0.40;;
56141;SDS011;42018;48.588;10.836;2022-07-10T16:18:42;1.88;;;0.60;;
56141;SDS011;42018;48.588;10.836;2022-07-10T16:21:29;1.38;;;0.60;;
56141;SDS011;42018;48.588;10.836;2022-07-10T16:24:14;1.70;;;0.52;;
56141;SDS011;42018;48.588;10.836;2022-07-10T16:26:59;1.13;;;0.50;;
56141;SDS011;42018;48.588;10.836;2022-07-10T16:29:45;2.22;;;0.60;;
56141;SDS011;42018;48.588;10.836;2022-07-10T16:32:30;2.25;;;0.60;;
56141;SDS011;42018;48.588;10.836;2022-07-10T16:35:15;2.08;;;0.60;;
56141;SDS011;42018;48.588;10.836;2022-07-10T16:38:01;1.55;;;0.50;;
56141;SDS011;42018;48.588;10.836;2022-07-10T16:40:46;1.80;;;0.50;;
56141;SDS011;42018;48.588;10.836;2022-07-10T16:43:32;2.17;;;0.75;;
56141;SDS011;42018;48.588;10.836;2022-07-10T16:46:18;1.17;;;0.50;;
56141;SDS011;42018;48.588;10.836;2022-07-10T16:49:04;1.60;;;0.57;;
56141;SDS011;42018;48.588;10.836;2022-07-10T16:51:49;1.98;;;0.52;;
56141;SDS011;42018;48.588;10.836;2022-07-10T16:54:35;1.80;;;0.57;;
56141;SDS011;42018;48.588;10.836;2022-07-10T16:57:22;1.92;;;0.60;;
56141;SDS011;42018;48.588;10.836;2022-07-10T17:00:08;3.20;;;0.65;;
56141;SDS011;42018;48.588;10.836;2022-07-10T17:02:54;2.15;;;0.80;;
56141;SDS011;42018;48.588;10.836;2022-07-10T17:05:40;2.88;;;0.60;;
56141;SDS011;42018;48.588;10.836;2022-07-10T17:08:25;1.65;;;0.50;;